Time;durP1;ratioP1;P1;durP2;ratioP2;P2;SDS_P1;SDS_P2;PMS_P1;PMS_P2;Temp;Humidity;BMP_temperature;BMP_pressure;BME280_temperature;BME280_humidity;BME280_pressure;Samples;Min_cycle;Max_cycle;Signal;HPM_P1;HPM_P2
2022/07/08 00:00:21;;;;;;;6.43;1.00;;;13.40;72.60;;;;;;4989427;28;20046;-67
2022/07/08 00:02:47;;;;;;;5.37;1.27;;;13.30;73.00;;;;;;5004947;28;20042;-67
2022/07/08 00:05:13;;;;;;;7.27;0.93;;;13.20;73.10;;;;;;4979599;28;20090;-67
2022/07/08 00:07:39;;;;;;;6.40;1.07;;;13.10;73.00;;;;;;4986866;28;20775;-67
2022/07/08 00:10:06;;;;;;;10.93;1.20;;;13.10;73.30;;;;;;5005775;28;20077;-67
2022/07/08 00:12:31;;;;;;;6.10;0.87;;;13.10;73.10;;;;;;4988310;28;20048;-67
2022/07/08 00:14:57;;;;;;;6.63;1.23;;;13.10;73.40;;;;;;5006329;28;20735;-67
2022/07/08 00:17:23;;;;;;;7.90;1.47;;;13.10;73.70;;;;;;5006084;28;20045;-67
2022/07/08 00:19:49;;;;;;;6.70;1.27;;;13.20;73.90;;;;;;5005627;28;20509;-67
2022/07/08 00:22:14;;;;;;;7.33;1.13;;;13.20;73.80;;;;;;5005205;28;20073;-67
2022/07/08 00:24:40;;;;;;;10.60;1.33;;;13.20;73.80;;;;;;5004222;28;20402;-67
2022/07/08 00:27:06;;;;;;;6.20;1.17;;;13.10;74.40;;;;;;5005555;28;20060;-67
2022/07/08 00:29:31;;;;;;;7.53;1.30;;;13.10;74.20;;;;;;5005538;28;20038;-67
2022/07/08 00:31:57;;;;;;;9.47;1.60;;;13.10;74.40;;;;;;4985650;28;20113;-67
2022/07/08 00:34:23;;;;;;;6.03;0.83;;;13.10;74.30;;;;;;5006122;28;20149;-67
2022/07/08 00:36:48;;;;;;;6.93;1.33;;;13.10;74.40;;;;;;4999383;28;20052;-67
2022/07/08 00:39:14;;;;;;;9.90;1.37;;;13.10;74.80;;;;;;5005017;28;20046;-67
2022/07/08 00:41:40;;;;;;;7.60;1.10;;;13.10;75.40;;;;;;5005711;28;20041;-67
2022/07/08 00:44:05;;;;;;;5.10;1.20;;;13.00;75.30;;;;;;5004969;28;20128;-67
2022/07/08 00:46:31;;;;;;;6.30;1.20;;;13.00;75.50;;;;;;5005546;28;20463;-67
2022/07/08 00:48:57;;;;;;;5.97;1.10;;;12.90;76.50;;;;;;5004556;28;20046;-67
2022/07/08 00:51:23;;;;;;;11.03;1.63;;;12.90;76.50;;;;;;4996937;28;20042;-67
2022/07/08 00:53:52;;;;;;;5.57;1.10;;;12.80;76.20;;;;;;5002378;28;20556;-67
2022/07/08 00:56:19;;;;;;;8.83;2.07;;;12.70;76.10;;;;;;5005194;28;20285;-67
2022/07/08 00:58:46;;;;;;;6.73;1.50;;;12.60;76.60;;;;;;4986924;28;20285;-67
2022/07/08 01:01:12;;;;;;;4.67;1.10;;;12.50;76.90;;;;;;5004635;28;20308;-67
2022/07/08 01:03:38;;;;;;;4.47;1.20;;;12.50;76.90;;;;;;5005292;28;20301;-67
2022/07/08 01:06:04;;;;;;;7.37;1.27;;;12.50;77.40;;;;;;5004648;28;20326;-67
2022/07/08 01:08:30;;;;;;;13.20;1.40;;;12.50;76.80;;;;;;5004509;28;20280;-67
2022/07/08 01:10:56;;;;;;;6.27;1.23;;;12.40;76.80;;;;;;4972758;28;20681;-67
2022/07/08 01:13:22;;;;;;;8.77;1.77;;;12.30;77.00;;;;;;5005585;28;20068;-67
2022/07/08 01:15:48;;;;;;;2.77;0.83;;;12.30;76.90;;;;;;5004938;28;20414;-67
2022/07/08 01:18:26;;;;;;;7.13;1.30;;;12.20;76.90;;;;;;4969300;28;20300;-67
2022/07/08 01:20:52;;;;;;;5.80;1.40;;;12.10;77.50;;;;;;5004557;28;20045;-67
2022/07/08 01:23:17;;;;;;;4.73;1.20;;;12.00;77.60;;;;;;4988197;28;20507;-67
2022/07/08 01:25:44;;;;;;;4.83;1.07;;;11.90;78.20;;;;;;5004756;28;20111;-67
2022/07/08 01:28:10;;;;;;;3.43;1.20;;;11.80;78.50;;;;;;5003303;28;20048;-67
2022/07/08 01:30:35;;;;;;;7.30;1.10;;;11.70;78.50;;;;;;5003900;28;20288;-67
2022/07/08 01:33:01;;;;;;;3.00;0.90;;;11.60;78.30;;;;;;4988406;28;20281;-67
2022/07/08 01:35:27;;;;;;;7.67;1.27;;;11.50;78.70;;;;;;5005262;28;20089;-67
2022/07/08 01:37:53;;;;;;;5.97;1.10;;;11.50;78.40;;;;;;4985186;28;20042;-67
2022/07/08 01:40:18;;;;;;;14.07;2.87;;;11.40;78.40;;;;;;5004338;28;20128;-67
2022/07/08 01:42:44;;;;;;;11.57;1.80;;;11.40;78.90;;;;;;5015961;28;20038;-67
2022/07/08 01:45:10;;;;;;;6.73;1.50;;;11.40;78.70;;;;;;5016888;28;20062;-67
2022/07/08 01:47:35;;;;;;;5.30;1.20;;;11.40;79.00;;;;;;4996273;28;20042;-67
2022/07/08 01:50:01;;;;;;;4.33;1.10;;;11.40;79.40;;;;;;5003767;28;20042;-67
2022/07/08 01:52:27;;;;;;;7.50;1.70;;;11.40;79.40;;;;;;5021256;28;20486;-67
2022/07/08 01:54:53;;;;;;;6.60;1.30;;;11.30;79.70;;;;;;5004781;28;20426;-67
2022/07/08 01:57:21;;;;;;;6.47;1.33;;;11.40;79.90;;;;;;5000411;28;20034;-67
2022/07/08 01:59:48;;;;;;;4.73;1.10;;;11.40;80.10;;;;;;5002314;28;20042;-67
2022/07/08 02:02:19;;;;;;;4.50;1.17;;;11.40;80.00;;;;;;4996481;28;20391;-67
2022/07/08 02:04:47;;;;;;;5.87;1.20;;;11.40;79.80;;;;;;5008775;28;20785;-67
2022/07/08 02:07:13;;;;;;;4.20;1.20;;;11.40;80.00;;;;;;5004538;28;20388;-67
2022/07/08 02:09:40;;;;;;;6.17;1.50;;;11.30;79.80;;;;;;5007383;28;20712;-67
2022/07/08 02:12:19;;;;;;;9.30;1.40;;;11.30;79.60;;;;;;5003154;28;20276;-67
2022/07/08 02:14:50;;;;;;;8.87;1.43;;;11.20;80.10;;;;;;5008616;28;20793;-67
2022/07/08 02:17:19;;;;;;;4.53;1.60;;;11.20;79.70;;;;;;5013708;28;20296;-67
2022/07/08 02:19:45;;;;;;;7.23;1.40;;;11.10;80.60;;;;;;5007022;28;20402;-67
2022/07/08 02:22:11;;;;;;;10.13;2.33;;;11.00;80.30;;;;;;5008004;28;20332;-67
2022/07/08 02:24:38;;;;;;;7.30;1.70;;;11.00;80.70;;;;;;5008340;28;20300;-67
2022/07/08 02:27:04;;;;;;;6.40;2.10;;;10.90;80.90;;;;;;5008073;28;20052;-67
2022/07/08 02:29:30;;;;;;;4.15;1.02;;;10.90;81.00;;;;;;5014503;28;20288;-67
2022/07/08 02:31:57;;;;;;;7.03;1.85;;;10.80;81.20;;;;;;4991134;28;20382;-67
2022/07/08 02:34:23;;;;;;;5.10;1.33;;;10.80;81.40;;;;;;5008257;28;20497;-67
2022/07/08 02:36:48;;;;;;;7.27;1.47;;;10.70;81.00;;;;;;4989493;28;20295;-67
2022/07/08 02:39:14;;;;;;;5.30;1.83;;;10.70;81.10;;;;;;5005586;28;20068;-67
2022/07/08 02:41:41;;;;;;;5.53;1.47;;;10.70;81.10;;;;;;4991860;28;20045;-67
2022/07/08 02:44:07;;;;;;;6.43;1.60;;;10.60;81.60;;;;;;4991205;28;20042;-67
2022/07/08 02:46:33;;;;;;;5.70;1.20;;;10.60;81.70;;;;;;5008126;28;20038;-67
2022/07/08 02:48:59;;;;;;;7.72;1.63;;;10.60;81.40;;;;;;5006580;28;20046;-67
2022/07/08 02:51:25;;;;;;;6.50;1.97;;;10.60;81.30;;;;;;5007612;28;20421;-67
2022/07/08 02:53:51;;;;;;;6.07;1.87;;;10.60;81.60;;;;;;5023068;28;20069;-67
2022/07/08 02:56:16;;;;;;;8.00;1.57;;;10.60;81.30;;;;;;5005959;28;20054;-67
2022/07/08 02:58:42;;;;;;;5.67;2.03;;;10.50;81.40;;;;;;4989386;28;20498;-67
2022/07/08 03:01:08;;;;;;;10.53;2.40;;;10.50;81.70;;;;;;4998245;28;20058;-67
2022/07/08 03:03:34;;;;;;;5.77;1.73;;;10.50;82.50;;;;;;5019351;28;20053;-67
2022/07/08 03:06:00;;;;;;;3.73;2.00;;;10.50;82.50;;;;;;4974288;28;20050;-67
2022/07/08 03:08:26;;;;;;;9.13;2.20;;;10.50;82.80;;;;;;5006554;28;20935;-67
2022/07/08 03:10:52;;;;;;;9.03;1.77;;;10.60;83.60;;;;;;5007145;28;20091;-67
2022/07/08 03:13:17;;;;;;;10.17;1.97;;;10.70;83.60;;;;;;5006574;28;20054;-67
2022/07/08 03:15:43;;;;;;;6.90;1.30;;;10.70;83.00;;;;;;5005166;28;20046;-67
2022/07/08 03:18:09;;;;;;;6.20;1.50;;;10.80;82.40;;;;;;4997954;28;20037;-67
2022/07/08 03:20:35;;;;;;;10.33;1.40;;;10.80;82.20;;;;;;5006089;28;20033;-67
2022/07/08 03:23:01;;;;;;;9.88;2.10;;;10.90;82.10;;;;;;5005243;28;20042;-67
2022/07/08 03:25:29;;;;;;;10.33;2.07;;;10.90;82.80;;;;;;4988957;28;20362;-67
2022/07/08 03:27:55;;;;;;;8.40;1.73;;;10.90;83.00;;;;;;5007017;28;20490;-67
2022/07/08 03:30:21;;;;;;;7.63;1.87;;;10.90;83.90;;;;;;5005038;28;20053;-67
2022/07/08 03:32:47;;;;;;;9.50;1.80;;;11.00;83.40;;;;;;5006990;28;20288;-67
2022/07/08 03:35:12;;;;;;;5.93;1.77;;;11.00;83.30;;;;;;5013564;28;20045;-67
2022/07/08 03:37:42;;;;;;;8.00;2.20;;;11.10;83.00;;;;;;5006673;28;20545;-67
2022/07/08 03:42:53;;;;;;;10.43;1.75;;;11.20;82.80;;;;;;5006479;28;20119;-67
2022/07/08 03:45:19;;;;;;;6.30;1.83;;;11.30;82.90;;;;;;5003528;28;20152;-67
2022/07/08 03:47:45;;;;;;;6.67;1.53;;;11.40;82.90;;;;;;5005025;28;20329;-67
2022/07/08 03:50:11;;;;;;;8.73;1.90;;;11.50;82.70;;;;;;5006400;28;20034;-67
2022/07/08 03:52:37;;;;;;;6.88;1.55;;;11.60;82.80;;;;;;5006512;28;20394;-67
2022/07/08 03:55:03;;;;;;;6.37;1.67;;;11.70;82.50;;;;;;5006285;28;20041;-67
2022/07/08 03:57:29;;;;;;;6.87;1.70;;;11.70;82.50;;;;;;5006224;28;20117;-66
2022/07/08 03:59:55;;;;;;;6.60;1.70;;;11.80;82.40;;;;;;5022600;28;20301;-66
2022/07/08 04:02:20;;;;;;;5.10;1.67;;;11.90;82.90;;;;;;5004647;28;20050;-67
2022/07/08 04:04:46;;;;;;;8.90;2.23;;;12.00;82.70;;;;;;5006382;28;20494;-66
2022/07/08 04:07:12;;;;;;;8.63;2.50;;;12.10;83.20;;;;;;5004114;28;20042;-66
2022/07/08 04:09:38;;;;;;;7.37;2.03;;;12.20;83.10;;;;;;5006419;28;20721;-67
2022/07/08 04:12:05;;;;;;;6.93;2.20;;;12.30;84.10;;;;;;4988629;28;20176;-67
2022/07/08 04:14:31;;;;;;;10.77;2.00;;;12.30;83.70;;;;;;4999512;28;20292;-67
2022/07/08 04:16:57;;;;;;;8.60;2.20;;;12.40;83.40;;;;;;4999061;28;20281;-67
2022/07/08 04:19:23;;;;;;;6.67;1.73;;;12.50;83.20;;;;;;4989390;28;20644;-67
2022/07/08 04:21:49;;;;;;;9.33;2.00;;;12.60;83.00;;;;;;5015098;28;20085;-67
2022/07/08 04:24:15;;;;;;;5.33;2.13;;;12.70;82.90;;;;;;5005797;28;20351;-67
2022/07/08 04:26:40;;;;;;;6.40;2.20;;;12.80;83.20;;;;;;5006217;28;20045;-67
2022/07/08 04:29:06;;;;;;;5.50;1.73;;;12.80;82.90;;;;;;4984680;28;20038;-66
2022/07/08 04:31:32;;;;;;;7.47;2.00;;;12.90;83.00;;;;;;5007261;28;20045;-66
2022/07/08 04:33:58;;;;;;;6.83;1.90;;;13.00;82.80;;;;;;5006412;28;20038;-66
2022/07/08 04:36:24;;;;;;;11.60;2.20;;;13.10;82.50;;;;;;5003934;28;20513;-66
2022/07/08 04:38:50;;;;;;;9.07;2.73;;;13.20;82.50;;;;;;5005729;28;20116;-67
2022/07/08 04:41:16;;;;;;;8.07;1.93;;;13.30;82.50;;;;;;5000241;28;20295;-66
2022/07/08 04:43:43;;;;;;;8.13;1.93;;;13.30;82.90;;;;;;5005101;28;20044;-66
2022/07/08 04:46:11;;;;;;;6.83;2.07;;;13.40;82.60;;;;;;5005601;28;20300;-67
2022/07/08 04:48:37;;;;;;;5.73;1.47;;;13.50;82.70;;;;;;4989119;28;20342;-67
2022/07/08 04:51:02;;;;;;;10.90;1.70;;;13.50;83.00;;;;;;5001624;28;20320;-67
2022/07/08 04:53:28;;;;;;;7.67;1.93;;;13.60;82.90;;;;;;5003600;28;20042;-67
2022/07/08 04:55:54;;;;;;;6.63;2.10;;;13.70;82.60;;;;;;5006695;28;20129;-67
2022/07/08 04:58:20;;;;;;;6.53;1.63;;;13.80;82.80;;;;;;5005104;28;20057;-67
2022/07/08 05:00:46;;;;;;;4.73;1.40;;;13.90;82.50;;;;;;5005318;28;20547;-67
2022/07/08 05:03:12;;;;;;;6.43;2.33;;;14.00;82.50;;;;;;5006008;28;20101;-67
2022/07/08 05:05:37;;;;;;;8.13;1.90;;;14.10;82.30;;;;;;5005553;28;20291;-67
2022/07/08 05:08:04;;;;;;;7.23;1.80;;;14.20;82.30;;;;;;4976492;28;20487;-67
2022/07/08 05:10:29;;;;;;;7.07;1.63;;;14.30;82.20;;;;;;5001215;28;20034;-67
2022/07/08 05:12:57;;;;;;;6.27;1.67;;;14.40;82.20;;;;;;4987455;28;20296;-67
2022/07/08 05:15:23;;;;;;;7.17;1.53;;;14.40;82.10;;;;;;5002418;28;20097;-67
2022/07/08 05:17:49;;;;;;;6.83;1.60;;;14.50;82.30;;;;;;5003709;28;20915;-67
2022/07/08 05:20:16;;;;;;;7.63;1.27;;;14.70;82.00;;;;;;5004470;28;20781;-67
2022/07/08 05:22:42;;;;;;;6.73;1.47;;;14.70;82.00;;;;;;4984765;28;20288;-67
2022/07/08 05:25:08;;;;;;;9.90;1.90;;;14.80;82.20;;;;;;5004176;28;20646;-67
2022/07/08 05:27:35;;;;;;;6.73;1.30;;;15.00;82.40;;;;;;4988398;28;20375;-67
2022/07/08 05:30:01;;;;;;;8.43;1.33;;;15.10;82.30;;;;;;5004562;28;20288;-67
2022/07/08 05:32:27;;;;;;;7.07;1.17;;;15.20;82.30;;;;;;5006012;28;20303;-66
2022/07/08 05:34:53;;;;;;;11.07;1.77;;;15.30;82.00;;;;;;4987216;28;20661;-66
2022/07/08 05:37:19;;;;;;;7.43;1.77;;;15.40;81.80;;;;;;4997812;28;20046;-66
2022/07/08 05:39:45;;;;;;;8.37;1.30;;;15.90;80.70;;;;;;5001818;28;20289;-66
2022/07/08 05:42:11;;;;;;;10.67;2.07;;;16.50;80.00;;;;;;5015025;28;20068;-67
2022/07/08 05:44:38;;;;;;;9.50;1.60;;;17.50;77.50;;;;;;5008552;28;20037;-67
2022/07/08 05:47:04;;;;;;;10.03;1.83;;;18.20;73.90;;;;;;5008444;28;20308;-67
2022/07/08 05:49:30;;;;;;;8.00;1.80;;;18.20;72.90;;;;;;5007979;28;20292;-67
2022/07/08 05:51:57;;;;;;;7.10;1.47;;;17.90;72.90;;;;;;5009490;28;20287;-67
2022/07/08 05:54:23;;;;;;;6.87;1.73;;;17.60;73.80;;;;;;5006884;28;20375;-67
2022/07/08 05:56:48;;;;;;;8.80;1.47;;;17.50;74.40;;;;;;5020312;28;20381;-67
2022/07/08 05:59:14;;;;;;;7.43;2.27;;;17.40;74.50;;;;;;5008114;28;20359;-67
2022/07/08 06:01:40;;;;;;;9.23;1.40;;;17.40;74.60;;;;;;5008822;28;20101;-67
2022/07/08 06:04:06;;;;;;;9.67;1.97;;;17.30;74.80;;;;;;4992438;28;20049;-67
2022/07/08 06:06:31;;;;;;;10.17;1.70;;;17.20;74.60;;;;;;5008440;28;20643;-67
2022/07/08 06:08:57;;;;;;;8.83;2.13;;;17.20;74.60;;;;;;5007745;28;20049;-67
2022/07/08 06:11:23;;;;;;;8.00;1.57;;;17.20;74.40;;;;;;4992324;28;20042;-67
2022/07/08 06:13:49;;;;;;;9.73;1.83;;;17.30;74.70;;;;;;5008883;28;20046;-67
2022/07/08 06:16:15;;;;;;;5.70;1.30;;;18.20;72.90;;;;;;5008140;28;20486;-67
2022/07/08 06:18:41;;;;;;;8.83;2.10;;;19.10;69.50;;;;;;5008281;28;20517;-67
2022/07/08 06:21:07;;;;;;;7.47;1.20;;;19.60;68.90;;;;;;5008149;28;20049;-67
2022/07/08 06:23:34;;;;;;;5.77;2.10;;;20.30;67.20;;;;;;5008555;28;20379;-67
2022/07/08 06:26:01;;;;;;;7.87;1.17;;;21.20;65.60;;;;;;4993114;28;20740;-68
2022/07/08 06:28:27;;;;;;;6.87;1.50;;;21.60;62.40;;;;;;4990638;28;20300;-68
2022/07/08 06:30:52;;;;;;;9.80;2.13;;;21.00;62.90;;;;;;5009068;28;20274;-68
2022/07/08 06:33:18;;;;;;;3.90;1.03;;;20.40;64.50;;;;;;5008613;28;20092;-68
2022/07/08 06:35:44;;;;;;;7.33;1.20;;;19.80;65.30;;;;;;4992363;28;20145;-68
2022/07/08 06:38:09;;;;;;;9.67;1.10;;;19.50;66.60;;;;;;5005591;28;20521;-68
2022/07/08 06:40:35;;;;;;;7.87;1.13;;;19.40;68.10;;;;;;5019350;28;20401;-68
2022/07/08 06:43:01;;;;;;;8.17;1.47;;;20.20;67.50;;;;;;5008025;28;20553;-68
2022/07/08 06:45:30;;;;;;;8.10;1.50;;;20.80;65.20;;;;;;5008553;28;20041;-68
2022/07/08 06:47:56;;;;;;;8.83;2.20;;;20.90;65.00;;;;;;5007212;28;20092;-67
2022/07/08 06:50:21;;;;;;;7.10;1.23;;;20.70;64.50;;;;;;4992303;28;20490;-67
2022/07/08 06:52:47;;;;;;;7.40;1.27;;;20.30;64.70;;;;;;4991392;28;20133;-67
2022/07/08 06:55:13;;;;;;;8.57;1.57;;;20.00;65.90;;;;;;4999036;28;20359;-67
2022/07/08 06:57:38;;;;;;;11.83;1.60;;;19.80;66.50;;;;;;5005203;28;21591;-67
2022/07/08 07:00:05;;;;;;;8.17;1.50;;;19.60;67.40;;;;;;5007354;28;20072;-67
2022/07/08 07:02:31;;;;;;;6.00;1.10;;;19.50;67.80;;;;;;5007177;28;20056;-68
2022/07/08 07:04:57;;;;;;;6.43;1.40;;;19.40;67.40;;;;;;4991926;28;20042;-68
2022/07/08 07:07:22;;;;;;;6.53;1.73;;;19.30;68.10;;;;;;4974462;28;20045;-68
2022/07/08 07:09:48;;;;;;;8.93;1.93;;;19.30;68.50;;;;;;4974805;28;20045;-68
2022/07/08 07:12:17;;;;;;;4.80;1.10;;;19.30;68.20;;;;;;5007730;28;20050;-68
2022/07/08 07:14:43;;;;;;;6.87;1.00;;;19.30;67.90;;;;;;5008084;28;20364;-68
2022/07/08 07:17:09;;;;;;;7.17;1.30;;;19.30;68.20;;;;;;5007994;28;20045;-68
2022/07/08 07:19:34;;;;;;;9.50;1.47;;;19.20;68.50;;;;;;5002954;28;20101;-68
2022/07/08 07:22:00;;;;;;;4.30;1.20;;;19.30;68.40;;;;;;4991214;28;20465;-68
2022/07/08 07:24:26;;;;;;;6.93;1.17;;;19.40;67.70;;;;;;5003174;28;20065;-68
2022/07/08 07:26:51;;;;;;;5.03;1.10;;;19.40;67.80;;;;;;5007847;28;20093;-68
2022/07/08 07:29:18;;;;;;;5.90;1.43;;;19.30;68.00;;;;;;4990408;28;20045;-68
2022/07/08 07:31:43;;;;;;;7.07;1.00;;;19.30;68.00;;;;;;4991205;28;20108;-68
2022/07/08 07:34:09;;;;;;;8.10;1.33;;;19.40;68.50;;;;;;5007369;28;20439;-68
2022/07/08 07:36:35;;;;;;;6.90;1.23;;;19.50;68.70;;;;;;5006634;28;20046;-68
2022/07/08 07:39:01;;;;;;;4.10;0.97;;;19.50;68.40;;;;;;4988818;28;20081;-68
2022/07/08 07:41:27;;;;;;;5.77;1.03;;;19.50;68.70;;;;;;5007713;28;20049;-68
2022/07/08 07:43:53;;;;;;;7.57;1.90;;;19.70;68.60;;;;;;5007567;28;20077;-68
2022/07/08 07:46:18;;;;;;;5.87;1.40;;;19.70;68.00;;;;;;5007697;28;20045;-68
2022/07/08 07:48:45;;;;;;;5.60;1.00;;;19.70;67.80;;;;;;5006351;28;20133;-68
2022/07/08 07:51:11;;;;;;;4.23;1.27;;;19.80;67.90;;;;;;4991010;28;20069;-68
2022/07/08 07:53:36;;;;;;;9.90;1.60;;;19.90;67.80;;;;;;4975346;28;20073;-68
2022/07/08 07:56:02;;;;;;;7.73;1.27;;;20.10;67.60;;;;;;5006494;28;20042;-68
2022/07/08 07:58:28;;;;;;;4.50;0.83;;;20.20;67.70;;;;;;5005215;28;20046;-68
2022/07/08 08:00:54;;;;;;;7.30;1.10;;;20.30;67.00;;;;;;5006189;28;20065;-68
2022/07/08 08:03:20;;;;;;;7.23;1.43;;;20.40;66.50;;;;;;5007174;28;20050;-68
2022/07/08 08:05:45;;;;;;;6.10;1.20;;;20.30;66.00;;;;;;5006854;28;20049;-68
2022/07/08 08:08:12;;;;;;;6.40;1.57;;;20.40;66.20;;;;;;5005060;28;20034;-68
2022/07/08 08:10:38;;;;;;;4.83;0.97;;;20.40;66.70;;;;;;4997353;28;20077;-68
2022/07/08 08:13:04;;;;;;;7.03;1.07;;;20.30;66.50;;;;;;5004638;28;20034;-68
2022/07/08 08:15:30;;;;;;;5.37;0.90;;;20.40;66.80;;;;;;4999515;28;20034;-68
2022/07/08 08:17:57;;;;;;;7.77;1.47;;;20.50;66.20;;;;;;4987751;28;20049;-68
2022/07/08 08:20:25;;;;;;;3.93;1.00;;;20.40;65.90;;;;;;4986764;28;20140;-68
2022/07/08 08:22:51;;;;;;;5.63;0.80;;;20.50;65.90;;;;;;4999497;28;20482;-68
2022/07/08 08:25:18;;;;;;;4.93;0.97;;;20.60;64.80;;;;;;5004669;28;20050;-68
2022/07/08 08:27:43;;;;;;;6.37;1.60;;;20.80;65.00;;;;;;5004004;28;20148;-68
2022/07/08 08:30:10;;;;;;;5.40;1.33;;;20.80;64.40;;;;;;4993231;28;20124;-68
2022/07/08 08:32:36;;;;;;;4.43;1.10;;;21.00;63.90;;;;;;5004814;28;20072;-68
2022/07/08 08:35:02;;;;;;;6.17;1.07;;;21.20;64.20;;;;;;5004718;28;20143;-68
2022/07/08 08:37:28;;;;;;;7.00;0.90;;;21.30;63.10;;;;;;4987784;28;20053;-68
2022/07/08 08:39:54;;;;;;;4.53;0.77;;;21.30;62.70;;;;;;5004473;28;20572;-68
2022/07/08 08:42:20;;;;;;;5.43;1.10;;;21.20;64.20;;;;;;5004438;28;20135;-68
2022/07/08 08:44:50;;;;;;;7.23;1.40;;;21.40;63.80;;;;;;5003951;28;20446;-68
2022/07/08 08:47:16;;;;;;;5.03;1.00;;;21.60;62.90;;;;;;4989151;28;20605;-68
2022/07/08 08:49:42;;;;;;;5.23;0.80;;;21.80;62.60;;;;;;4985051;28;20041;-68
2022/07/08 08:52:10;;;;;;;3.80;1.10;;;21.90;62.20;;;;;;4986241;28;20038;-68
2022/07/08 08:54:37;;;;;;;4.97;1.13;;;22.00;61.10;;;;;;5004218;28;20085;-68
2022/07/08 08:57:05;;;;;;;3.97;0.93;;;22.00;60.10;;;;;;4986659;28;20049;-68
2022/07/08 08:59:33;;;;;;;4.67;0.73;;;22.10;59.80;;;;;;5004533;28;20644;-67
2022/07/08 09:02:00;;;;;;;5.03;0.70;;;22.20;59.70;;;;;;5000526;28;20069;-68
2022/07/08 09:04:29;;;;;;;4.07;1.07;;;22.20;58.90;;;;;;4988271;28;20482;-68
2022/07/08 09:06:55;;;;;;;3.87;0.83;;;22.40;58.70;;;;;;4996558;28;20049;-68
2022/07/08 09:09:20;;;;;;;3.50;0.57;;;22.40;57.70;;;;;;5004069;28;20536;-68
2022/07/08 09:11:46;;;;;;;3.70;0.70;;;22.40;57.30;;;;;;4988280;28;20344;-68
2022/07/08 09:14:18;;;;;;;3.83;0.47;;;22.40;57.30;;;;;;5003368;28;20033;-68
2022/07/08 09:17:10;;;;;;;4.00;0.80;;;22.50;57.90;;;;;;5003694;28;20510;-68
2022/07/08 09:19:37;;;;;;;3.33;0.60;;;22.70;56.40;;;;;;4986828;28;20410;-68
2022/07/08 09:22:06;;;;;;;3.97;0.87;;;22.60;56.70;;;;;;5003880;28;20450;-68
2022/07/08 09:24:31;;;;;;;5.60;0.83;;;22.50;56.50;;;;;;4991356;28;20537;-68
2022/07/08 09:27:05;;;;;;;2.50;0.60;;;22.50;56.50;;;;;;5002653;28;20034;-68
2022/07/08 09:29:31;;;;;;;2.20;0.50;;;22.70;57.00;;;;;;5003422;28;20442;-68
2022/07/08 09:32:14;;;;;;;5.50;1.20;;;22.80;56.90;;;;;;5003625;28;20045;-68
2022/07/08 09:34:42;;;;;;;3.67;1.00;;;22.80;55.20;;;;;;4986155;28;20034;-68
2022/07/08 09:37:11;;;;;;;3.33;0.83;;;22.80;55.70;;;;;;5003498;28;20045;-68
2022/07/08 09:39:37;;;;;;;2.27;0.53;;;22.60;56.10;;;;;;5003144;28;20049;-67
2022/07/08 09:42:06;;;;;;;3.37;0.83;;;22.60;57.50;;;;;;5003876;28;20079;-68
2022/07/08 09:44:32;;;;;;;4.17;0.90;;;22.70;56.50;;;;;;4998905;28;20034;-68
2022/07/08 09:46:58;;;;;;;4.17;1.10;;;22.70;56.30;;;;;;4997965;28;20046;-68
2022/07/08 09:49:31;;;;;;;6.20;0.80;;;22.50;57.00;;;;;;4987080;28;20037;-68
2022/07/08 09:51:59;;;;;;;3.43;0.80;;;22.60;57.80;;;;;;5004113;28;20049;-68
2022/07/08 09:54:26;;;;;;;5.17;0.83;;;22.60;56.90;;;;;;5003721;28;20037;-67
2022/07/08 09:57:03;;;;;;;6.90;0.83;;;22.70;57.40;;;;;;5004087;28;20038;-67
2022/07/08 09:59:30;;;;;;;4.80;0.87;;;22.80;57.80;;;;;;5002936;28;20061;-67
2022/07/08 10:01:57;;;;;;;6.47;1.07;;;22.80;56.70;;;;;;5004774;28;20140;-67
2022/07/08 10:04:26;;;;;;;4.17;1.60;;;22.90;57.90;;;;;;5002925;28;20034;-68
2022/07/08 10:06:53;;;;;;;6.97;1.13;;;23.10;56.70;;;;;;5000629;28;20065;-68
2022/07/08 10:09:21;;;;;;;6.90;1.37;;;23.20;56.90;;;;;;4997998;28;20164;-68
2022/07/08 10:11:48;;;;;;;3.83;0.90;;;23.40;56.60;;;;;;5003720;28;20041;-68
2022/07/08 10:14:14;;;;;;;4.80;1.10;;;23.50;56.30;;;;;;5004443;28;20057;-68
2022/07/08 10:16:41;;;;;;;4.40;1.33;;;23.60;57.10;;;;;;5004567;28;20045;-68
2022/07/08 10:19:31;;;;;;;5.47;1.33;;;23.70;56.40;;;;;;5003617;28;20081;-68
2022/07/08 10:21:58;;;;;;;4.07;1.43;;;23.60;56.70;;;;;;5019712;28;20081;-68
2022/07/08 10:24:27;;;;;;;5.50;1.87;;;23.60;57.10;;;;;;5007283;28;20056;-68
2022/07/08 10:26:57;;;;;;;4.90;1.53;;;23.50;57.30;;;;;;5002616;28;20410;-68
2022/07/08 10:29:33;;;;;;;7.80;1.90;;;23.40;57.50;;;;;;5003813;28;20038;-68
2022/07/08 10:32:00;;;;;;;5.37;1.63;;;23.40;57.90;;;;;;5000710;28;20049;-67
2022/07/08 10:34:30;;;;;;;4.20;1.77;;;23.30;58.60;;;;;;5004684;28;20037;-67
2022/07/08 10:36:56;;;;;;;4.60;1.60;;;23.40;58.10;;;;;;5006632;28;20081;-68
2022/07/08 10:39:36;;;;;;;4.40;1.83;;;23.40;57.30;;;;;;5006464;28;20455;-68
2022/07/08 10:42:07;;;;;;;5.20;2.20;;;23.40;57.50;;;;;;4990303;28;20495;-68
2022/07/08 10:44:45;;;;;;;7.30;1.90;;;23.50;58.70;;;;;;5006214;28;20417;-68
2022/07/08 10:47:16;;;;;;;5.07;1.87;;;23.40;58.60;;;;;;5023318;28;20305;-67
2022/07/08 10:49:48;;;;;;;6.00;1.63;;;23.50;58.50;;;;;;5006577;28;20042;-67
2022/07/08 10:52:15;;;;;;;7.17;1.57;;;23.70;58.40;;;;;;4991070;28;20061;-68
2022/07/08 10:54:42;;;;;;;7.07;1.83;;;23.80;58.20;;;;;;4987627;28;20033;-68
2022/07/08 10:57:37;;;;;;;6.30;1.80;;;23.70;57.80;;;;;;4990570;28;20037;-67
2022/07/08 11:00:13;;;;;;;6.97;2.20;;;23.70;58.10;;;;;;4994405;28;20052;-67
2022/07/08 11:02:46;;;;;;;6.80;1.90;;;23.80;59.00;;;;;;5006605;28;20053;-68
2022/07/08 11:05:35;;;;;;;9.13;2.20;;;23.80;59.00;;;;;;4987028;28;20363;-67
2022/07/08 11:08:27;;;;;;;5.17;2.13;;;23.60;59.00;;;;;;5005261;28;20045;-67
2022/07/08 11:10:55;;;;;;;6.63;2.40;;;23.70;59.00;;;;;;4987218;28;20108;-67
2022/07/08 11:13:23;;;;;;;11.67;2.60;;;23.70;59.00;;;;;;5002808;28;20153;-67
2022/07/08 11:15:49;;;;;;;7.10;2.57;;;23.80;59.10;;;;;;5020791;28;20046;-67
2022/07/08 11:18:21;;;;;;;5.73;2.67;;;23.80;59.10;;;;;;5006131;28;20050;-68
2022/07/08 11:20:47;;;;;;;8.90;3.47;;;23.70;59.20;;;;;;5004065;28;20046;-68
2022/07/08 11:23:15;;;;;;;9.40;3.00;;;23.50;59.90;;;;;;4988934;28;20420;-66
2022/07/08 11:25:40;;;;;;;7.60;2.50;;;23.50;60.00;;;;;;5006967;28;20128;-67
2022/07/08 11:28:20;;;;;;;9.60;2.73;;;23.30;60.60;;;;;;4982210;28;20041;-67
2022/07/08 11:30:45;;;;;;;8.70;3.03;;;23.30;60.40;;;;;;5006852;28;20100;-67
2022/07/08 11:33:11;;;;;;;9.43;2.93;;;23.40;60.80;;;;;;5006169;28;20406;-67
2022/07/08 11:35:40;;;;;;;10.03;3.40;;;23.50;60.80;;;;;;4987957;28;20046;-67
2022/07/08 11:38:06;;;;;;;11.87;3.10;;;23.50;60.60;;;;;;5003904;28;20449;-67
2022/07/08 11:40:41;;;;;;;9.23;2.57;;;23.60;60.20;;;;;;4994740;28;20046;-67
2022/07/08 11:43:20;;;;;;;9.10;2.80;;;23.70;61.50;;;;;;5007217;28;20065;-67
2022/07/08 11:45:46;;;;;;;7.63;3.50;;;24.00;60.80;;;;;;5007091;28;20048;-67
2022/07/08 11:48:12;;;;;;;11.23;2.90;;;24.20;59.80;;;;;;5005780;28;20042;-67
2022/07/08 11:50:47;;;;;;;13.23;3.20;;;24.20;60.30;;;;;;5006756;28;20038;-67
2022/07/08 11:53:23;;;;;;;11.63;2.97;;;24.10;60.90;;;;;;4990355;28;20486;-67
2022/07/08 11:55:49;;;;;;;8.63;2.53;;;24.00;60.80;;;;;;4974726;28;20053;-67
2022/07/08 11:58:22;;;;;;;10.20;2.33;;;23.90;60.50;;;;;;5005863;28;20041;-67
2022/07/08 12:00:49;;;;;;;6.37;1.90;;;23.80;60.20;;;;;;4987378;28;20080;-68
2022/07/08 12:03:15;;;;;;;7.23;1.67;;;23.80;60.40;;;;;;4974360;28;20050;-67
2022/07/08 12:05:41;;;;;;;7.40;2.43;;;23.90;60.30;;;;;;5005081;28;20042;-67
2022/07/08 12:08:11;;;;;;;4.83;2.17;;;23.80;60.10;;;;;;4985506;28;20561;-67
2022/07/08 12:10:37;;;;;;;7.13;2.20;;;23.90;60.60;;;;;;4989103;28;20043;-67
2022/07/08 12:13:03;;;;;;;11.00;2.27;;;24.10;60.90;;;;;;4990944;28;20072;-67
2022/07/08 12:15:36;;;;;;;11.13;2.80;;;24.20;60.00;;;;;;5006105;28;20050;-67
2022/07/08 12:18:06;;;;;;;9.13;2.87;;;24.20;61.20;;;;;;5006069;28;20050;-67
2022/07/08 12:20:35;;;;;;;10.73;2.70;;;23.90;61.10;;;;;;5005862;28;20107;-67
2022/07/08 12:23:01;;;;;;;14.07;3.17;;;23.90;61.10;;;;;;4990380;28;20471;-67
2022/07/08 12:25:28;;;;;;;9.13;2.27;;;23.90;61.30;;;;;;5002507;28;20534;-67
2022/07/08 12:28:03;;;;;;;9.30;2.67;;;23.90;60.90;;;;;;4995550;28;20121;-67
2022/07/08 12:30:31;;;;;;;12.63;2.53;;;24.00;61.20;;;;;;5006409;28;20038;-67
2022/07/08 12:33:02;;;;;;;8.77;2.50;;;24.10;61.20;;;;;;5006502;28;20772;-67
2022/07/08 12:35:31;;;;;;;8.10;2.60;;;24.20;59.90;;;;;;5004853;28;20053;-67
2022/07/08 12:38:07;;;;;;;8.80;2.77;;;23.90;60.70;;;;;;5004624;28;20050;-67
2022/07/08 12:40:38;;;;;;;8.90;2.93;;;23.80;61.30;;;;;;5005603;28;20125;-68
2022/07/08 12:43:06;;;;;;;10.30;2.73;;;23.60;62.50;;;;;;4988535;28;20109;-67
2022/07/08 12:45:31;;;;;;;9.00;2.83;;;23.90;62.30;;;;;;4998746;28;20132;-67
2022/07/08 12:47:58;;;;;;;8.43;3.10;;;24.10;61.90;;;;;;4989258;28;20128;-67